Time;durP1;ratioP1;P1;durP2;ratioP2;P2;SDS_P1;SDS_P2;PMS_P1;PMS_P2;Temp;Humidity;BMP_temperature;BMP_pressure;BME280_temperature;BME280_humidity;BME280_pressure;Samples;Min_cycle;Max_cycle;Signal;HPM_P1;HPM_P2
2022/10/13 00:00:53;;;;;;;8.87;5.17;;;9.90;99.90;;;;;;4969051;28;20506;-68
2022/10/13 00:03:19;;;;;;;13.57;5.50;;;9.90;99.90;;;;;;4998325;28;20193;-68
2022/10/13 00:05:47;;;;;;;13.93;5.33;;;9.90;99.90;;;;;;4976710;28;20181;-68
2022/10/13 00:08:19;;;;;;;14.57;5.93;;;10.00;99.90;;;;;;4991470;28;20209;-68
2022/10/13 00:10:47;;;;;;;12.37;5.57;;;9.90;99.90;;;;;;4976690;28;20645;-69
2022/10/13 00:13:13;;;;;;;16.07;5.80;;;10.00;99.90;;;;;;4996785;28;20220;-69
2022/10/13 00:15:42;;;;;;;12.03;6.13;;;10.00;99.90;;;;;;4995915;28;20283;-69
2022/10/13 00:18:08;;;;;;;14.30;5.77;;;9.90;99.90;;;;;;4994360;28;20592;-68
2022/10/13 00:20:34;;;;;;;15.40;5.53;;;9.80;99.90;;;;;;4997964;28;20216;-69
2022/10/13 00:22:59;;;;;;;11.83;5.20;;;9.90;99.90;;;;;;4995279;28;20218;-68
2022/10/13 00:25:25;;;;;;;14.10;5.17;;;9.90;99.90;;;;;;4991096;28;20224;-68
2022/10/13 00:27:51;;;;;;;9.73;5.53;;;9.80;99.90;;;;;;4993761;28;20206;-68
2022/10/13 00:30:17;;;;;;;14.67;6.37;;;9.80;99.90;;;;;;4994705;28;20173;-69
2022/10/13 00:32:42;;;;;;;12.03;5.20;;;9.80;99.90;;;;;;4996188;28;20217;-69
2022/10/13 00:35:08;;;;;;;10.67;5.43;;;9.80;99.90;;;;;;4973235;28;20218;-69
2022/10/13 00:37:34;;;;;;;12.03;5.80;;;9.80;99.90;;;;;;4997414;28;20276;-69
2022/10/13 00:39:59;;;;;;;12.40;5.00;;;9.70;99.90;;;;;;4992725;28;20214;-68
2022/10/13 00:42:26;;;;;;;12.37;5.67;;;9.70;99.90;;;;;;4972564;28;20297;-69
2022/10/13 00:44:57;;;;;;;12.13;5.23;;;9.70;99.90;;;;;;4989699;28;20181;-69
2022/10/13 00:47:24;;;;;;;8.23;5.00;;;9.70;99.90;;;;;;4993504;28;20212;-69
2022/10/13 00:49:51;;;;;;;10.07;5.23;;;9.70;99.90;;;;;;4993119;28;20205;-69
2022/10/13 00:52:19;;;;;;;12.40;5.97;;;9.70;99.90;;;;;;4969480;28;20643;-69
2022/10/13 00:54:46;;;;;;;13.30;5.77;;;9.70;99.90;;;;;;4996210;28;20304;-69
2022/10/13 00:57:12;;;;;;;13.67;5.20;;;9.60;99.90;;;;;;4994416;28;20320;-69
2022/10/13 00:59:39;;;;;;;12.90;5.43;;;9.60;99.90;;;;;;4988558;28;20221;-68
2022/10/13 01:02:05;;;;;;;8.33;5.80;;;9.50;99.90;;;;;;4987229;28;20225;-69
2022/10/13 01:04:36;;;;;;;14.20;5.67;;;9.60;99.90;;;;;;4979758;28;20368;-69
2022/10/13 01:07:03;;;;;;;14.70;5.77;;;9.50;99.90;;;;;;4991455;28;20585;-68
2022/10/13 01:09:36;;;;;;;13.43;5.00;;;9.40;99.90;;;;;;4985780;28;20221;-68
2022/10/13 01:12:31;;;;;;;17.27;6.83;;;9.50;99.90;;;;;;4997321;28;20573;-68
2022/10/13 01:15:06;;;;;;;12.57;4.97;;;9.50;99.90;;;;;;4991408;28;20205;-68
2022/10/13 01:17:52;;;;;;;14.40;5.90;;;9.50;99.90;;;;;;4988929;28;20328;-68
2022/10/13 01:20:27;;;;;;;17.23;5.83;;;9.50;99.90;;;;;;4996196;28;20244;-69
2022/10/13 01:23:23;;;;;;;9.40;5.37;;;9.50;99.90;;;;;;4992676;28;20217;-67
2022/10/13 01:26:11;;;;;;;12.67;5.40;;;9.50;99.90;;;;;;4984489;28;20222;-68
2022/10/13 01:29:08;;;;;;;12.47;5.50;;;9.40;99.90;;;;;;4977178;28;20287;-68
2022/10/13 01:31:41;;;;;;;9.67;5.27;;;9.40;99.90;;;;;;4968638;28;20224;-68
2022/10/13 01:34:13;;;;;;;10.30;5.57;;;9.50;99.90;;;;;;4991424;28;20268;-69
2022/10/13 01:37:09;;;;;;;11.57;5.97;;;9.40;99.90;;;;;;4991307;28;20795;-68
2022/10/13 01:39:45;;;;;;;16.40;5.40;;;9.40;99.90;;;;;;4992860;28;20214;-68
2022/10/13 01:42:16;;;;;;;14.60;5.53;;;9.30;99.90;;;;;;4991535;28;20221;-68
2022/10/13 01:44:49;;;;;;;15.10;5.47;;;9.30;99.90;;;;;;4971865;28;20676;-68
2022/10/13 01:47:16;;;;;;;9.70;4.87;;;9.40;99.90;;;;;;4997801;28;20683;-68
2022/10/13 01:49:43;;;;;;;12.57;6.00;;;9.40;99.90;;;;;;4994117;28;20214;-68
2022/10/13 01:52:16;;;;;;;12.60;5.70;;;9.40;99.90;;;;;;4985940;28;20284;-68
2022/10/13 01:54:42;;;;;;;9.10;5.40;;;9.40;99.90;;;;;;4977980;28;20213;-68
2022/10/13 01:57:33;;;;;;;12.07;5.93;;;9.40;99.90;;;;;;4991234;28;20210;-69
2022/10/13 02:00:03;;;;;;;17.67;5.80;;;9.40;99.90;;;;;;4973264;28;20239;-68
2022/10/13 02:02:41;;;;;;;14.53;5.73;;;9.40;99.90;;;;;;4990615;28;20282;-68
2022/10/13 02:05:10;;;;;;;10.67;5.83;;;9.40;99.90;;;;;;4994691;28;20213;-69
2022/10/13 02:07:41;;;;;;;13.27;5.43;;;9.40;99.90;;;;;;4987377;28;20722;-69
2022/10/13 02:10:44;;;;;;;11.20;5.73;;;9.50;99.90;;;;;;4988498;28;20206;-68
2022/10/13 02:13:13;;;;;;;10.50;5.40;;;9.50;99.90;;;;;;4992478;28;20238;-68
2022/10/13 02:15:43;;;;;;;10.20;5.47;;;9.40;99.90;;;;;;4991143;28;20251;-68
2022/10/13 02:18:13;;;;;;;11.77;6.10;;;9.40;99.90;;;;;;4989283;28;20310;-68
2022/10/13 02:20:41;;;;;;;10.67;5.77;;;9.40;99.90;;;;;;4996916;28;20317;-68
2022/10/13 02:23:11;;;;;;;12.40;5.77;;;9.40;99.90;;;;;;4975585;28;20257;-68
2022/10/13 02:25:37;;;;;;;17.33;6.67;;;9.30;99.90;;;;;;4973848;28;20209;-69
2022/10/13 02:28:04;;;;;;;11.30;5.93;;;9.30;99.90;;;;;;4992849;28;20244;-69
2022/10/13 02:30:32;;;;;;;13.57;6.27;;;9.20;99.90;;;;;;4976383;28;20185;-68
2022/10/13 02:32:58;;;;;;;17.90;5.80;;;9.10;99.90;;;;;;4987983;28;20431;-68
2022/10/13 02:35:23;;;;;;;10.97;5.70;;;9.10;99.90;;;;;;4985846;28;20225;-68
2022/10/13 02:37:49;;;;;;;13.57;6.10;;;9.10;99.90;;;;;;4982613;28;20596;-68
2022/10/13 02:40:15;;;;;;;15.07;6.33;;;9.20;99.90;;;;;;4981522;28;20257;-68
2022/10/13 02:42:40;;;;;;;11.20;5.20;;;9.10;99.90;;;;;;4984781;28;20582;-68
2022/10/13 02:45:06;;;;;;;12.97;5.80;;;9.00;99.90;;;;;;4984287;28;20190;-68
2022/10/13 02:47:32;;;;;;;14.20;5.90;;;9.00;99.90;;;;;;4981844;28;20763;-69
2022/10/13 02:49:58;;;;;;;11.70;6.50;;;9.00;99.90;;;;;;4982881;28;20224;-69
2022/10/13 02:52:23;;;;;;;10.43;5.90;;;9.00;99.90;;;;;;4983433;28;20218;-69
2022/10/13 02:54:49;;;;;;;13.37;6.47;;;9.00;99.90;;;;;;4964233;28;20213;-69
2022/10/13 02:57:14;;;;;;;13.77;7.10;;;8.90;99.90;;;;;;4981540;28;20178;-68
2022/10/13 02:59:40;;;;;;;14.63;6.57;;;8.90;99.90;;;;;;4986167;28;20220;-68
2022/10/13 03:02:05;;;;;;;12.00;6.70;;;8.90;99.90;;;;;;4983240;28;20293;-69
2022/10/13 03:04:31;;;;;;;17.30;6.80;;;8.90;99.90;;;;;;4981859;28;20889;-68
2022/10/13 03:06:57;;;;;;;16.40;6.30;;;8.90;99.90;;;;;;4980767;28;20763;-67
2022/10/13 03:09:22;;;;;;;12.87;6.70;;;8.90;99.90;;;;;;4983076;28;20182;-67
2022/10/13 03:11:48;;;;;;;14.70;7.00;;;8.90;99.90;;;;;;4982206;28;20556;-68
2022/10/13 03:14:13;;;;;;;14.33;6.33;;;8.80;99.90;;;;;;4980862;28;20285;-68
2022/10/13 03:16:39;;;;;;;17.03;6.43;;;8.80;99.90;;;;;;4984433;28;20225;-68
2022/10/13 03:19:04;;;;;;;10.43;5.73;;;8.90;99.90;;;;;;4986444;28;20205;-68
2022/10/13 03:21:30;;;;;;;9.83;6.00;;;9.00;99.90;;;;;;4988563;28;20190;-68
2022/10/13 03:23:55;;;;;;;10.63;5.80;;;8.80;99.90;;;;;;4984816;28;20210;-68
2022/10/13 03:26:21;;;;;;;16.40;6.60;;;8.80;99.90;;;;;;4974960;28;20625;-68
2022/10/13 03:28:49;;;;;;;12.90;6.43;;;8.80;99.90;;;;;;4985469;28;20208;-68
2022/10/13 03:31:16;;;;;;;13.57;6.07;;;8.80;99.90;;;;;;4984364;28;20209;-68
2022/10/13 03:33:41;;;;;;;12.03;6.80;;;8.80;99.90;;;;;;4987894;28;20285;-68
2022/10/13 03:36:07;;;;;;;13.53;6.87;;;8.80;99.90;;;;;;4989915;28;20209;-67
2022/10/13 03:38:33;;;;;;;12.93;7.00;;;8.80;99.90;;;;;;4984971;28;20210;-68
2022/10/13 03:41:10;;;;;;;13.87;6.10;;;8.80;99.90;;;;;;4986276;28;20222;-68
2022/10/13 03:43:36;;;;;;;15.63;6.97;;;8.80;99.90;;;;;;4987322;28;20704;-68
2022/10/13 03:46:05;;;;;;;14.87;6.67;;;8.70;99.90;;;;;;4985533;28;20349;-68
2022/10/13 03:48:32;;;;;;;17.73;7.20;;;8.70;99.90;;;;;;4986013;28;20174;-68
2022/10/13 03:50:58;;;;;;;13.77;7.23;;;8.70;99.90;;;;;;4985561;28;20241;-68
2022/10/13 03:53:24;;;;;;;12.33;6.50;;;8.60;99.90;;;;;;4984853;28;20206;-68
2022/10/13 03:55:54;;;;;;;12.93;7.07;;;8.70;99.90;;;;;;4984679;28;20276;-67
2022/10/13 03:58:22;;;;;;;13.70;6.70;;;8.70;99.90;;;;;;4987138;28;20296;-68
2022/10/13 04:00:49;;;;;;;13.13;6.60;;;8.80;99.90;;;;;;4985285;28;20256;-67
2022/10/13 04:03:15;;;;;;;14.63;6.97;;;8.80;99.90;;;;;;4968215;28;20226;-68
2022/10/13 04:05:41;;;;;;;13.73;6.77;;;8.80;99.90;;;;;;4965350;28;20272;-68
2022/10/13 04:08:07;;;;;;;14.20;6.47;;;8.90;99.90;;;;;;4984002;28;20259;-68
2022/10/13 04:10:32;;;;;;;11.23;6.93;;;8.90;99.90;;;;;;4984018;28;20246;-68
2022/10/13 04:12:58;;;;;;;13.93;8.07;;;9.00;99.90;;;;;;4983893;28;20698;-68
2022/10/13 04:15:24;;;;;;;11.40;6.63;;;8.90;99.90;;;;;;4971757;28;20323;-68
2022/10/13 04:17:50;;;;;;;12.83;7.10;;;8.90;99.90;;;;;;4969632;28;20206;-68
2022/10/13 04:20:15;;;;;;;11.57;6.90;;;8.90;99.90;;;;;;4988094;28;20568;-68
2022/10/13 04:22:41;;;;;;;11.57;6.63;;;8.90;99.90;;;;;;4971324;28;20621;-70
2022/10/13 04:25:07;;;;;;;14.90;6.87;;;8.90;99.90;;;;;;4982882;28;20269;-68
2022/10/13 04:27:33;;;;;;;13.27;7.03;;;8.90;99.90;;;;;;4984587;28;20294;-68
2022/10/13 04:29:58;;;;;;;15.20;6.87;;;8.90;99.90;;;;;;4983711;28;20254;-68
2022/10/13 04:32:24;;;;;;;16.97;7.10;;;8.90;99.90;;;;;;4987201;28;20279;-68
2022/10/13 04:34:49;;;;;;;13.37;6.93;;;8.90;99.90;;;;;;4987222;28;20229;-68
2022/10/13 04:37:15;;;;;;;13.57;6.87;;;8.90;99.90;;;;;;4985705;28;20260;-68
2022/10/13 04:39:41;;;;;;;13.50;7.17;;;8.90;99.90;;;;;;4983879;28;20597;-68
2022/10/13 04:42:06;;;;;;;12.20;7.30;;;8.90;99.90;;;;;;4961829;28;20206;-68
2022/10/13 04:44:32;;;;;;;13.40;7.40;;;8.90;99.90;;;;;;4968806;28;20268;-68
2022/10/13 04:46:59;;;;;;;20.70;7.60;;;8.90;99.90;;;;;;4973052;28;20560;-69
2022/10/13 04:49:25;;;;;;;13.10;7.17;;;8.90;99.90;;;;;;4989435;28;20220;-69
2022/10/13 04:51:50;;;;;;;12.70;7.20;;;8.90;99.90;;;;;;4986405;28;20210;-69
2022/10/13 04:54:17;;;;;;;15.90;7.73;;;9.00;99.90;;;;;;4989904;28;20228;-68
2022/10/13 04:56:44;;;;;;;13.93;7.53;;;9.00;99.90;;;;;;4986688;28;20576;-68
2022/10/13 04:59:10;;;;;;;15.17;7.30;;;9.10;99.90;;;;;;4988040;28;20237;-68
2022/10/13 05:01:36;;;;;;;16.70;7.93;;;9.10;99.90;;;;;;4988007;28;20276;-68
2022/10/13 05:04:03;;;;;;;19.30;8.73;;;9.10;99.90;;;;;;4972372;28;20369;-67
2022/10/13 05:06:32;;;;;;;18.50;7.73;;;9.10;99.90;;;;;;4989713;28;20178;-68
2022/10/13 05:08:58;;;;;;;15.50;7.80;;;9.00;99.90;;;;;;4966392;28;20196;-68
2022/10/13 05:11:25;;;;;;;15.97;7.20;;;9.00;99.90;;;;;;4990188;28;20210;-68
2022/10/13 05:13:51;;;;;;;15.17;7.53;;;9.10;99.90;;;;;;4971694;28;20221;-68
2022/10/13 05:16:18;;;;;;;15.80;8.13;;;9.00;99.90;;;;;;4988716;28;20283;-68
2022/10/13 05:18:44;;;;;;;16.70;8.70;;;9.00;99.90;;;;;;4986745;28;20213;-69
2022/10/13 05:21:18;;;;;;;13.73;7.87;;;9.00;99.90;;;;;;4992202;28;20723;-68
2022/10/13 05:23:44;;;;;;;14.60;7.67;;;9.00;99.90;;;;;;4987938;28;20224;-68
2022/10/13 05:26:12;;;;;;;14.37;7.80;;;9.10;99.90;;;;;;4984688;28;20214;-69
2022/10/13 05:28:38;;;;;;;18.33;7.90;;;9.10;99.90;;;;;;4986850;28;20420;-69
2022/10/13 05:31:11;;;;;;;15.10;7.33;;;9.10;99.90;;;;;;4986983;28;20224;-68
2022/10/13 05:33:37;;;;;;;15.50;8.60;;;9.10;99.90;;;;;;4985457;28;20221;-68
2022/10/13 05:36:11;;;;;;;13.20;7.73;;;9.10;99.90;;;;;;5009316;23;20221;-71
2022/10/13 05:38:37;;;;;;;16.83;8.10;;;9.30;99.90;;;;;;5021636;28;20209;-72
2022/10/13 05:41:12;;;;;;;16.13;8.70;;;9.30;99.90;;;;;;5014145;28;20569;-71
2022/10/13 05:43:39;;;;;;;19.30;8.07;;;9.30;99.90;;;;;;5011651;28;20262;-71
2022/10/13 05:46:05;;;;;;;16.10;8.90;;;9.30;99.90;;;;;;5019091;28;20223;-71
2022/10/13 05:48:31;;;;;;;17.27;8.93;;;9.10;99.90;;;;;;5018054;28;20231;-71
2022/10/13 05:50:59;;;;;;;17.87;9.10;;;9.20;99.90;;;;;;5014558;28;20177;-71
2022/10/13 05:53:31;;;;;;;15.50;8.87;;;9.40;99.90;;;;;;5013765;28;20239;-71
2022/10/13 05:56:05;;;;;;;18.17;8.90;;;9.40;99.90;;;;;;5007137;28;20224;-71
2022/10/13 05:58:37;;;;;;;16.87;9.60;;;9.60;99.90;;;;;;5015347;28;20691;-71
2022/10/13 06:01:10;;;;;;;15.60;7.70;;;10.50;99.90;;;;;;5008427;28;20209;-71
2022/10/13 06:03:37;;;;;;;16.63;8.80;;;10.60;99.90;;;;;;5019368;28;20212;-71
2022/10/13 06:06:03;;;;;;;17.83;9.07;;;10.30;99.90;;;;;;5016414;28;20206;-71
2022/10/13 06:08:29;;;;;;;15.40;8.47;;;9.90;99.90;;;;;;5008736;28;20571;-71
2022/10/13 06:10:54;;;;;;;16.10;9.60;;;9.60;99.90;;;;;;5013120;28;20217;-70
2022/10/13 06:13:20;;;;;;;14.00;8.70;;;9.60;99.90;;;;;;5011276;28;20204;-71
2022/10/13 06:15:45;;;;;;;16.00;9.10;;;9.70;99.90;;;;;;5012471;28;20216;-71
2022/10/13 06:18:11;;;;;;;22.07;9.60;;;9.60;99.90;;;;;;5011268;28;20268;-70
2022/10/13 06:20:37;;;;;;;20.40;9.63;;;9.50;99.90;;;;;;5018506;28;20212;-71
2022/10/13 06:23:03;;;;;;;18.63;9.10;;;9.50;99.90;;;;;;5016318;28;20205;-71
2022/10/13 06:25:28;;;;;;;16.77;9.27;;;9.50;99.90;;;;;;5008830;28;20224;-71
2022/10/13 06:27:58;;;;;;;18.30;9.57;;;9.50;99.90;;;;;;5006544;28;20726;-70
2022/10/13 06:30:24;;;;;;;15.93;8.80;;;9.60;99.90;;;;;;5018382;28;20298;-71
2022/10/13 06:32:51;;;;;;;15.33;8.90;;;9.60;99.90;;;;;;5012788;28;20241;-71
2022/10/13 06:35:17;;;;;;;15.90;9.20;;;9.60;99.90;;;;;;5014113;28;20232;-70
2022/10/13 06:37:45;;;;;;;17.30;9.40;;;9.60;99.90;;;;;;5023316;28;20217;-69
2022/10/13 06:40:11;;;;;;;16.70;8.90;;;9.60;99.90;;;;;;5012615;28;20352;-71
2022/10/13 06:42:36;;;;;;;18.50;9.27;;;9.80;99.90;;;;;;5014645;28;20287;-71
2022/10/13 06:45:02;;;;;;;19.47;9.70;;;9.90;99.90;;;;;;5016452;28;20276;-71
2022/10/13 06:47:27;;;;;;;20.40;9.80;;;9.90;99.90;;;;;;5017976;28;20565;-70
2022/10/13 06:49:53;;;;;;;15.70;9.50;;;10.00;99.90;;;;;;5016106;28;20213;-70
2022/10/13 06:52:18;;;;;;;18.30;9.17;;;10.20;99.90;;;;;;5009669;28;20228;-73
2022/10/13 06:54:44;;;;;;;28.43;10.50;;;10.30;99.90;;;;;;5021513;28;20212;-71
2022/10/13 06:57:11;;;;;;;22.10;10.20;;;10.50;99.90;;;;;;5016170;28;20213;-70
2022/10/13 06:59:36;;;;;;;24.53;10.03;;;10.50;99.90;;;;;;5016835;28;20209;-71
2022/10/13 07:02:02;;;;;;;19.60;9.47;;;10.70;99.90;;;;;;5013744;28;20277;-71
2022/10/13 07:04:27;;;;;;;22.50;9.87;;;10.90;99.90;;;;;;5030674;28;20219;-71
2022/10/13 07:06:53;;;;;;;21.83;9.07;;;11.00;99.90;;;;;;5011408;28;20217;-70
2022/10/13 07:09:19;;;;;;;24.17;12.23;;;10.80;99.90;;;;;;5014172;28;20300;-70
2022/10/13 07:11:46;;;;;;;29.80;14.87;;;10.90;99.90;;;;;;5021162;28;20243;-72
2022/10/13 07:14:12;;;;;;;18.60;10.23;;;10.80;99.90;;;;;;5024508;28;20643;-72
2022/10/13 07:16:38;;;;;;;21.40;10.87;;;10.80;99.90;;;;;;5012044;28;20653;-72
2022/10/13 07:19:04;;;;;;;25.17;10.30;;;11.00;99.90;;;;;;5010498;28;20236;-72
2022/10/13 07:21:30;;;;;;;24.43;9.40;;;11.10;99.90;;;;;;5023273;28;20682;-72
2022/10/13 07:23:55;;;;;;;15.50;9.60;;;11.30;99.90;;;;;;5017052;28;20181;-71
2022/10/13 07:26:21;;;;;;;18.70;9.70;;;11.40;99.90;;;;;;5016892;28;20224;-71
2022/10/13 07:28:47;;;;;;;16.97;9.30;;;11.60;99.90;;;;;;5012729;28;20263;-71
2022/10/13 07:31:18;;;;;;;21.10;10.23;;;11.90;99.90;;;;;;5021251;28;20212;-70
2022/10/13 07:33:47;;;;;;;18.43;9.23;;;12.30;99.90;;;;;;5012490;28;20213;-71
2022/10/13 07:36:13;;;;;;;19.47;9.63;;;12.90;99.90;;;;;;5016060;28;20229;-72
2022/10/13 07:38:39;;;;;;;18.53;9.30;;;12.70;99.90;;;;;;5014781;28;20183;-71
2022/10/13 07:41:06;;;;;;;16.23;9.30;;;12.50;99.90;;;;;;5014970;28;20228;-71
2022/10/13 07:43:32;;;;;;;14.27;9.03;;;12.40;99.90;;;;;;5012853;28;20227;-72
2022/10/13 07:45:59;;;;;;;19.17;8.97;;;12.90;99.90;;;;;;5021110;28;20228;-70
2022/10/13 07:48:25;;;;;;;17.30;9.47;;;13.70;99.90;;;;;;5020378;28;20180;-73
2022/10/13 07:50:51;;;;;;;16.90;8.97;;;14.10;99.90;;;;;;5011179;28;20218;-72
2022/10/13 07:53:17;;;;;;;15.40;9.30;;;14.20;99.90;;;;;;5015400;28;20459;-71
2022/10/13 07:55:42;;;;;;;18.30;10.07;;;13.70;99.90;;;;;;5017470;28;20220;-72
2022/10/13 07:58:08;;;;;;;16.93;9.90;;;14.10;99.90;;;;;;5016711;28;20717;-72
2022/10/13 08:00:33;;;;;;;16.77;9.95;;;14.50;99.90;;;;;;5012085;28;20228;-72
2022/10/13 08:02:59;;;;;;;16.42;10.20;;;15.60;99.90;;;;;;5018200;28;20177;-71
2022/10/13 08:05:24;;;;;;;16.50;9.68;;;15.80;99.90;;;;;;5019340;28;20212;-72
2022/10/13 08:07:50;;;;;;;17.15;9.15;;;16.30;99.90;;;;;;5008946;28;20209;-73
2022/10/13 08:10:16;;;;;;;16.10;9.50;;;15.90;99.90;;;;;;5010974;28;20208;-71
2022/10/13 08:12:41;;;;;;;16.75;9.38;;;15.50;99.90;;;;;;5014191;28;20584;-72
2022/10/13 08:15:08;;;;;;;21.48;9.73;;;15.00;99.90;;;;;;5012375;28;20695;-73
2022/10/13 08:17:33;;;;;;;16.30;9.52;;;14.30;99.90;;;;;;5012279;28;20262;-72
2022/10/13 08:19:59;;;;;;;19.80;10.95;;;14.10;99.90;;;;;;5018478;28;20205;-73
2022/10/13 08:22:26;;;;;;;21.75;10.27;;;14.10;99.90;;;;;;5021239;28;20204;-72
2022/10/13 08:24:51;;;;;;;20.15;10.35;;;13.60;99.90;;;;;;5008058;28;20213;-72
2022/10/13 08:27:22;;;;;;;20.63;10.70;;;13.60;99.90;;;;;;5013121;28;20203;-72
2022/10/13 08:29:48;;;;;;;17.07;11.03;;;13.90;99.90;;;;;;4999842;28;20740;-72
2022/10/13 08:32:14;;;;;;;21.00;11.70;;;13.80;99.90;;;;;;5011733;28;20280;-73
2022/10/13 08:34:39;;;;;;;20.73;11.43;;;13.80;99.90;;;;;;5010046;28;20213;-72
2022/10/13 08:37:05;;;;;;;13.27;10.50;;;14.10;99.90;;;;;;5017594;28;20585;-73
2022/10/13 08:39:30;;;;;;;19.33;10.77;;;14.40;99.90;;;;;;5016145;28;20233;-73
2022/10/13 08:41:56;;;;;;;15.30;10.20;;;14.60;99.90;;;;;;5014049;28;20185;-73
2022/10/13 08:44:26;;;;;;;13.75;9.85;;;14.60;99.90;;;;;;5018562;28;20311;-72
2022/10/13 08:47:16;;;;;;;18.15;10.95;;;14.70;99.90;;;;;;5017798;28;20215;-73
2022/10/13 08:49:42;;;;;;;17.65;10.45;;;14.90;99.90;;;;;;5018720;28;20247;-72
2022/10/13 08:52:26;;;;;;;20.20;11.45;;;15.10;99.90;;;;;;5006083;28;20214;-73
2022/10/13 08:54:53;;;;;;;18.23;11.15;;;15.00;99.90;;;;;;5019872;28;20200;-72
2022/10/13 08:57:19;;;;;;;17.65;10.85;;;15.30;99.90;;;;;;5008976;28;20283;-72
2022/10/13 08:59:45;;;;;;;19.52;11.07;;;15.10;99.90;;;;;;5013245;28;20643;-73
2022/10/13 09:02:20;;;;;;;18.23;10.98;;;15.50;99.90;;;;;;5021136;28;20214;-73
2022/10/13 09:04:49;;;;;;;18.65;11.18;;;15.20;99.90;;;;;;5016994;28;20275;-73
2022/10/13 09:07:23;;;;;;;17.85;11.02;;;15.40;99.90;;;;;;5011242;28;20209;-73
2022/10/13 09:09:53;;;;;;;17.48;10.30;;;15.50;99.90;;;;;;5013883;28;20300;-72
2022/10/13 09:12:23;;;;;;;20.23;10.30;;;15.00;99.90;;;;;;5013044;28;20177;-72
2022/10/13 09:15:08;;;;;;;22.73;11.30;;;14.80;99.90;;;;;;5012843;28;20260;-73
2022/10/13 09:17:35;;;;;;;21.33;11.30;;;14.90;99.90;;;;;;5010903;28;20626;-73
2022/10/13 09:20:22;;;;;;;18.25;11.18;;;14.70;99.90;;;;;;5012865;28;20236;-73
2022/10/13 09:23:02;;;;;;;17.98;11.00;;;14.90;99.90;;;;;;5014766;28;20738;-73
2022/10/13 09:25:28;;;;;;;18.38;11.38;;;14.80;99.90;;;;;;5009705;28;20267;-73
2022/10/13 09:27:59;;;;;;;19.35;10.90;;;14.80;99.90;;;;;;5010914;28;20209;-70
2022/10/13 09:30:31;;;;;;;17.90;11.93;;;14.30;99.90;;;;;;5017120;28;20184;-73
2022/10/13 09:33:11;;;;;;;19.83;11.27;;;14.40;99.90;;;;;;5006863;28;20209;-72
2022/10/13 09:35:40;;;;;;;17.15;12.13;;;14.60;99.90;;;;;;5014088;28;20243;-73
2022/10/13 09:38:20;;;;;;;20.98;12.65;;;14.50;99.90;;;;;;5019205;28;20210;-73
2022/10/13 09:41:12;;;;;;;20.27;11.73;;;14.60;99.90;;;;;;5025183;28;20209;-72
2022/10/13 09:43:47;;;;;;;22.05;11.32;;;14.50;99.90;;;;;;5012028;28;20209;-72
2022/10/13 09:46:23;;;;;;;19.52;12.38;;;14.60;99.90;;;;;;5019823;28;20212;-73
2022/10/13 09:48:53;;;;;;;17.40;12.23;;;14.60;99.90;;;;;;5014017;28;20578;-72
2022/10/13 09:51:44;;;;;;;25.95;12.25;;;14.70;99.90;;;;;;5013733;28;20534;-72
2022/10/13 09:54:26;;;;;;;19.17;12.55;;;14.90;99.90;;;;;;5017189;28;20190;-73
2022/10/13 09:57:08;;;;;;;19.30;11.77;;;15.20;99.90;;;;;;5011047;28;20220;-72
2022/10/13 09:59:44;;;;;;;16.45;11.40;;;15.20;99.90;;;;;;5008401;28;20880;-73
2022/10/13 10:02:31;;;;;;;19.45;12.82;;;15.40;99.90;;;;;;5018705;28;20208;-72
2022/10/13 10:05:03;;;;;;;17.48;12.68;;;15.70;99.90;;;;;;5014246;28;20201;-71
2022/10/13 10:07:31;;;;;;;22.65;12.57;;;15.70;99.90;;;;;;5009515;28;20204;-73
2022/10/13 10:10:01;;;;;;;23.42;13.65;;;15.80;99.90;;;;;;5006516;28;20238;-72
2022/10/13 10:12:30;;;;;;;21.95;12.10;;;16.00;99.90;;;;;;5012417;28;20183;-72
2022/10/13 10:14:55;;;;;;;22.92;12.50;;;16.10;99.90;;;;;;5012648;28;20187;-72
2022/10/13 10:17:35;;;;;;;21.38;12.35;;;16.30;99.90;;;;;;5011169;28;20720;-71
2022/10/13 10:20:12;;;;;;;21.42;13.15;;;16.50;99.90;;;;;;5013641;28;20220;-72
2022/10/13 10:23:03;;;;;;;18.00;13.50;;;16.60;99.90;;;;;;5014930;28;20683;-73
2022/10/13 10:25:52;;;;;;;22.02;13.30;;;16.90;99.90;;;;;;5008250;28;20228;-72
2022/10/13 10:28:46;;;;;;;20.70;12.50;;;17.20;99.90;;;;;;5011603;28;20204;-73
2022/10/13 10:31:28;;;;;;;15.70;11.60;;;17.10;99.90;;;;;;5029067;28;20208;-72
2022/10/13 10:33:58;;;;;;;19.13;12.68;;;17.40;99.90;;;;;;5011173;28;20204;-71
2022/10/13 10:36:45;;;;;;;22.02;13.23;;;17.60;99.90;;;;;;5016589;28;20216;-72
2022/10/13 10:39:26;;;;;;;19.00;12.63;;;17.90;99.90;;;;;;5013160;28;20202;-73
2022/10/13 10:42:01;;;;;;;23.33;13.35;;;18.30;99.90;;;;;;5011484;28;20223;-72
2022/10/13 10:44:31;;;;;;;23.95;13.13;;;18.40;99.90;;;;;;5014101;28;20269;-73
2022/10/13 10:47:03;;;;;;;21.98;13.40;;;17.80;99.90;;;;;;5015578;28;20228;-71
2022/10/13 10:49:36;;;;;;;21.02;12.90;;;17.60;99.90;;;;;;5012823;28;20200;-72
2022/10/13 10:52:07;;;;;;;18.75;13.65;;;17.30;99.90;;;;;;5019245;28;20215;-73
2022/10/13 10:54:40;;;;;;;21.92;12.35;;;16.90;99.90;;;;;;5017615;28;20234;-74
2022/10/13 10:57:30;;;;;;;16.80;12.18;;;16.80;99.90;;;;;;5013570;28;20224;-73
2022/10/13 11:00:03;;;;;;;19.75;12.52;;;17.00;99.90;;;;;;5011152;28;20212;-73
2022/10/13 11:02:43;;;;;;;18.15;12.13;;;16.90;99.90;;;;;;5013630;28;20243;-73
2022/10/13 11:05:10;;;;;;;24.73;12.75;;;17.00;99.90;;;;;;5016274;28;20592;-73
2022/10/13 11:07:38;;;;;;;18.98;11.88;;;17.20;99.90;;;;;;5007107;28;20351;-73
2022/10/13 11:10:13;;;;;;;15.40;11.73;;;17.30;99.90;;;;;;5009378;28;20283;-72
2022/10/13 11:12:50;;;;;;;22.58;12.57;;;17.70;99.90;;;;;;4999857;28;20208;-72
2022/10/13 11:15:40;;;;;;;20.45;12.32;;;17.80;99.90;;;;;;5013711;28;20179;-73
2022/10/13 11:18:58;;;;;;;18.92;11.38;;;17.70;99.90;;;;;;5007039;28;20185;-73
2022/10/13 11:21:24;;;;;;;15.38;10.52;;;17.80;99.90;;;;;;4905433;29;20196;-73
2022/10/13 11:23:50;;;;;;;19.35;11.48;;;17.60;99.90;;;;;;4998379;28;20277;-73
2022/10/13 11:26:25;;;;;;;16.83;10.93;;;17.90;99.90;;;;;;5004593;28;20307;-73
2022/10/13 11:28:50;;;;;;;18.73;11.57;;;17.90;99.90;;;;;;5010767;28;20200;-71
2022/10/13 11:31:27;;;;;;;21.90;10.98;;;17.90;99.90;;;;;;5014189;28;20568;-73
2022/10/13 11:33:56;;;;;;;17.63;10.07;;;17.70;99.90;;;;;;5009268;28;20709;-71
2022/10/13 11:36:46;;;;;;;14.70;9.35;;;17.70;99.90;;;;;;5016608;28;20212;-73
2022/10/13 11:39:26;;;;;;;20.88;10.45;;;17.70;99.90;;;;;;5017689;28;20208;-73
2022/10/13 11:42:10;;;;;;;15.95;10.15;;;17.70;99.90;;;;;;5045451;23;20235;-70
2022/10/13 11:44:53;;;;;;;14.75;10.13;;;17.70;99.90;;;;;;5050721;28;20287;-69
2022/10/13 11:47:57;;;;;;;15.18;9.48;;;17.50;99.90;;;;;;5028228;28;20289;-70
2022/10/13 11:50:50;;;;;;;14.35;9.52;;;17.50;99.90;;;;;;5026538;28;20291;-69
2022/10/13 11:53:25;;;;;;;13.95;9.70;;;17.60;99.90;;;;;;5043469;28;20211;-69
2022/10/13 11:55:53;;;;;;;13.20;8.60;;;17.80;99.90;;;;;;5018249;28;20440;-69
2022/10/13 11:58:22;;;;;;;13.25;8.00;;;17.90;99.90;;;;;;5033374;28;20296;-70
2022/10/13 12:00:50;;;;;;;14.15;7.68;;;17.90;99.90;;;;;;5031498;28;20269;-70
2022/10/13 12:03:30;;;;;;;12.20;7.32;;;18.00;99.90;;;;;;5031934;28;20659;-69
2022/10/13 12:06:21;;;;;;;10.68;6.78;;;18.10;99.90;;;;;;5028698;28;20254;-69
2022/10/13 12:08:48;;;;;;;12.00;7.13;;;18.20;99.90;;;;;;5025379;28;20204;-70
2022/10/13 12:11:26;;;;;;;10.73;7.20;;;18.30;99.90;;;;;;5026526;28;20212;-70
2022/10/13 12:13:52;;;;;;;14.88;6.57;;;18.20;99.90;;;;;;5026467;28;20222;-69
2022/10/13 12:16:18;;;;;;;10.05;6.70;;;18.20;99.90;;;;;;5031198;28;20910;-69
2022/10/13 12:18:43;;;;;;;11.50;6.15;;;18.30;99.90;;;;;;5024212;28;20262;-69
2022/10/13 12:21:21;;;;;;;14.13;7.22;;;18.30;99.90;;;;;;5030838;28;20687;-69
2022/10/13 12:23:48;;;;;;;11.80;6.43;;;18.30;99.90;;;;;;5026899;28;20291;-67
2022/10/13 12:26:16;;;;;;;14.32;6.88;;;18.10;99.90;;;;;;5025959;28;20204;-68
2022/10/13 12:28:49;;;;;;;10.55;6.50;;;18.20;99.90;;;;;;5027041;28;20265;-69
2022/10/13 12:31:22;;;;;;;14.38;7.40;;;18.20;99.90;;;;;;5028097;28;20270;-68
2022/10/13 12:33:58;;;;;;;9.13;6.47;;;18.10;99.90;;;;;;5028931;28;20231;-68
2022/10/13 12:36:26;;;;;;;15.38;6.78;;;18.20;99.90;;;;;;5027878;28;20184;-68
2022/10/13 12:38:55;;;;;;;10.02;6.07;;;18.20;99.90;;;;;;5029251;28;20176;-68
2022/10/13 12:41:27;;;;;;;9.45;6.05;;;18.10;99.90;;;;;;5025619;28;20597;-68
2022/10/13 12:43:53;;;;;;;11.30;6.20;;;17.90;99.90;;;;;;5028777;28;20200;-68
2022/10/13 12:46:37;;;;;;;11.82;6.35;;;17.80;99.90;;;;;;5031283;28;20649;-68
2022/10/13 12:49:12;;;;;;;9.93;6.75;;;17.80;99.90;;;;;;5030902;28;20208;-68
2022/10/13 12:51:38;;;;;;;11.40;6.47;;;17.60;99.90;;;;;;5022976;28;20235;-69
2022/10/13 12:54:15;;;;;;;10.90;7.15;;;17.60;99.90;;;;;;5026964;28;20173;-68
2022/10/13 12:56:41;;;;;;;12.98;6.95;;;17.70;99.90;;;;;;5026358;28;20240;-69